createdAt,value
2023-02-12T00:00:13.567Z,17.17
2023-02-12T00:02:46.962Z,16.60
2023-02-12T00:05:16.554Z,17.83
2023-02-12T00:07:45.672Z,18.00
2023-02-12T00:10:14.658Z,16.77
2023-02-12T00:12:43.802Z,16.98
2023-02-12T00:15:12.887Z,15.50
2023-02-12T00:17:41.983Z,16.13
2023-02-12T00:20:13.268Z,16.48
2023-02-12T00:22:42.349Z,16.23
2023-02-12T00:25:13.946Z,15.27
2023-02-12T00:27:43.005Z,16.52
2023-02-12T00:30:13.142Z,16.98
2023-02-12T00:32:42.401Z,18.02
2023-02-12T00:35:14.194Z,16.70
2023-02-12T00:37:43.308Z,17.10
2023-02-12T00:40:13.452Z,16.75
2023-02-12T00:42:42.592Z,17.23
2023-02-12T00:45:11.584Z,15.95
2023-02-12T00:47:41.026Z,15.93
2023-02-12T00:50:11.257Z,16.77
2023-02-12T00:52:44.447Z,16.92
2023-02-12T00:55:13.563Z,17.70
2023-02-12T00:57:42.976Z,17.73
2023-02-12T01:00:14.314Z,16.23
2023-02-12T01:02:43.448Z,17.52
2023-02-12T01:05:12.735Z,16.00
2023-02-12T01:07:41.909Z,16.55
2023-02-12T01:10:13.011Z,16.40
2023-02-12T01:12:42.257Z,16.90
2023-02-12T01:15:12.325Z,16.75
2023-02-12T01:17:41.685Z,16.27
2023-02-12T01:20:17.437Z,17.20
2023-02-12T01:22:46.999Z,17.05
2023-02-12T01:25:20.427Z,17.05
2023-02-12T01:27:49.833Z,16.55
2023-02-12T01:30:22.182Z,18.58
2023-02-12T01:32:55.578Z,17.20
2023-02-12T01:35:24.670Z,16.80
2023-02-12T01:37:53.675Z,16.73
2023-02-12T01:40:24.463Z,17.40
2023-02-12T01:42:53.505Z,16.98
2023-02-12T01:45:53.740Z,16.52
2023-02-12T01:48:27.366Z,17.00
2023-02-12T01:50:58.978Z,16.45
2023-02-12T01:53:35.255Z,16.17
2023-02-12T01:56:07.759Z,15.80
2023-02-12T01:58:40.417Z,17.38
2023-02-12T02:01:19.608Z,17.33
2023-02-12T02:03:52.607Z,16.10
2023-02-12T02:06:27.651Z,16.23
2023-02-12T02:08:58.051Z,16.88
2023-02-12T02:11:46.634Z,16.23
2023-02-12T02:14:33.881Z,15.85
2023-02-12T02:17:33.420Z,15.68
2023-02-12T02:20:43.973Z,15.93
2023-02-12T02:23:41.249Z,15.52
2023-02-12T02:26:49.646Z,15.43
2023-02-12T02:30:03.993Z,15.65
2023-02-12T02:32:39.443Z,14.85
2023-02-12T02:35:16.309Z,16.00
2023-02-12T02:37:52.844Z,16.92
2023-02-12T02:40:27.004Z,15.40
2023-02-12T02:43:02.682Z,14.98
2023-02-12T02:45:39.435Z,15.52
2023-02-12T02:48:17.832Z,15.07
2023-02-12T02:50:52.255Z,15.70
2023-02-12T02:53:27.802Z,16.02
2023-02-12T02:56:00.565Z,15.27
2023-02-12T02:58:36.968Z,15.55
2023-02-12T03:01:10.991Z,16.05
2023-02-12T03:03:48.771Z,15.63
2023-02-12T03:06:26.820Z,15.27
2023-02-12T03:09:01.396Z,14.82
2023-02-12T03:11:33.636Z,15.20
2023-02-12T03:14:12.524Z,14.70
2023-02-12T03:16:47.254Z,15.70
2023-02-12T03:19:21.402Z,13.48
2023-02-12T03:21:57.029Z,14.48
2023-02-12T03:24:33.018Z,14.40
2023-02-12T03:27:10.540Z,14.25
2023-02-12T03:29:39.865Z,14.82
2023-02-12T03:32:25.690Z,14.32
2023-02-12T03:35:06.208Z,15.55
2023-02-12T03:37:39.616Z,15.27
2023-02-12T03:40:20.039Z,14.85
2023-02-12T03:42:59.112Z,14.85
2023-02-12T03:45:41.953Z,15.05
2023-02-12T03:48:18.865Z,14.02
2023-02-12T03:50:55.724Z,14.68
2023-02-12T03:53:25.985Z,13.57
2023-02-12T03:56:03.356Z,15.32
2023-02-12T03:58:36.526Z,14.93
2023-02-12T04:01:06.234Z,13.95
2023-02-12T04:03:35.975Z,14.50
2023-02-12T04:06:18.592Z,14.02
2023-02-12T04:08:47.692Z,13.88
2023-02-12T04:11:29.402Z,14.00
2023-02-12T04:14:15.480Z,14.25
2023-02-12T04:16:52.545Z,14.55
2023-02-12T04:22:18.035Z,15.23
2023-02-12T04:24:56.098Z,15.75
2023-02-12T04:27:35.222Z,13.88
2023-02-12T04:30:13.894Z,15.25
2023-02-12T04:32:48.182Z,14.65
2023-02-12T04:35:25.378Z,15.00
2023-02-12T04:40:29.796Z,14.43
2023-02-12T04:42:59.135Z,15.75
2023-02-12T04:45:31.936Z,13.75
2023-02-12T04:48:01.321Z,14.38
2023-02-12T04:50:40.700Z,14.05
2023-02-12T04:53:12.081Z,14.05
2023-02-12T04:55:41.268Z,13.15
2023-02-12T04:58:10.463Z,13.85
2023-02-12T05:00:39.594Z,13.32
2023-02-12T05:03:08.742Z,14.23
2023-02-12T05:05:37.859Z,14.35
2023-02-12T05:08:07.071Z,14.48
2023-02-12T05:10:37.651Z,14.68
2023-02-12T05:13:06.748Z,14.32
2023-02-12T05:15:35.841Z,14.77
2023-02-12T05:18:05.172Z,16.45
2023-02-12T05:20:34.327Z,14.68
2023-02-12T05:23:03.445Z,14.38
2023-02-12T05:25:33.039Z,14.25
2023-02-12T05:28:03.574Z,14.40
2023-02-12T05:30:32.708Z,15.48
2023-02-12T05:33:01.779Z,14.18
2023-02-12T05:35:30.920Z,15.43
2023-02-12T05:38:00.060Z,13.57
2023-02-12T05:40:29.327Z,14.13
2023-02-12T05:42:58.427Z,14.35
2023-02-12T05:45:29.359Z,13.75
2023-02-12T05:47:58.780Z,14.85
2023-02-12T05:50:27.919Z,14.68
2023-02-12T05:53:02.505Z,15.15
2023-02-12T05:55:31.530Z,14.93
2023-02-12T05:58:00.648Z,15.05
2023-02-12T06:00:31.112Z,14.95
2023-02-12T06:03:00.297Z,15.13
2023-02-12T06:05:29.516Z,16.88
2023-02-12T06:07:58.546Z,15.68
2023-02-12T06:10:28.086Z,14.95
2023-02-12T06:12:58.669Z,16.80
2023-02-12T06:15:28.073Z,16.25
2023-02-12T06:17:58.850Z,15.52
2023-02-12T06:20:27.938Z,14.93
2023-02-12T06:22:56.985Z,13.73
2023-02-12T06:25:26.089Z,15.13
2023-02-12T06:27:55.203Z,14.13
2023-02-12T06:30:24.332Z,13.57
2023-02-12T06:32:53.468Z,14.15
2023-02-12T06:35:24.010Z,14.18
2023-02-12T06:37:53.130Z,14.27
2023-02-12T06:40:22.876Z,13.90
2023-02-12T06:42:51.977Z,15.02
2023-02-12T06:45:21.309Z,15.13
2023-02-12T06:47:50.592Z,14.05
2023-02-12T06:50:20.098Z,13.93
2023-02-12T06:52:50.851Z,13.80
2023-02-12T06:55:20.129Z,13.35
2023-02-12T06:57:49.219Z,15.32
2023-02-12T07:00:19.961Z,14.10
2023-02-12T07:02:55.197Z,14.50
2023-02-12T07:05:25.824Z,16.48
2023-02-12T07:07:59.698Z,18.30
2023-02-12T07:10:28.965Z,18.38
2023-02-12T07:12:58.175Z,18.00
2023-02-12T07:15:27.313Z,29.25
2023-02-12T07:17:56.354Z,26.67
2023-02-12T07:20:25.464Z,21.48
2023-02-12T07:22:56.035Z,16.05
2023-02-12T07:25:25.148Z,16.00
2023-02-12T07:27:54.229Z,15.00
2023-02-12T07:30:29.301Z,13.65
2023-02-12T07:33:00.134Z,13.97
2023-02-12T07:35:29.573Z,12.77
2023-02-12T07:38:00.161Z,12.43
2023-02-12T07:40:29.270Z,11.93
2023-02-12T07:42:58.825Z,12.68
2023-02-12T07:45:28.058Z,14.15
2023-02-12T07:47:57.298Z,14.30
2023-02-12T07:50:26.509Z,14.50
2023-02-12T07:52:56.220Z,22.25
2023-02-12T07:55:26.965Z,21.60
2023-02-12T07:57:56.087Z,20.33
2023-02-12T08:00:25.225Z,19.92
2023-02-12T08:02:54.696Z,14.40
2023-02-12T08:05:23.866Z,13.32
2023-02-12T08:07:53.373Z,13.73
2023-02-12T08:10:23.725Z,13.48
2023-02-12T08:12:54.194Z,12.63
2023-02-12T08:15:23.239Z,12.98
2023-02-12T08:17:52.344Z,12.43
2023-02-12T08:20:21.572Z,12.55
2023-02-12T08:22:50.590Z,12.32
2023-02-12T08:25:19.744Z,13.10
2023-02-12T08:27:48.802Z,12.00
2023-02-12T08:30:19.633Z,11.80
2023-02-12T08:32:50.800Z,11.63
2023-02-12T08:35:19.863Z,11.90
2023-02-12T08:37:49.040Z,12.10
2023-02-12T08:40:18.285Z,12.32
2023-02-12T08:42:47.462Z,12.70
2023-02-12T08:45:18.148Z,13.80
2023-02-12T08:47:49.704Z,12.52
2023-02-12T08:50:21.835Z,12.20
2023-02-12T08:52:50.953Z,11.95
2023-02-12T08:55:19.996Z,11.00
2023-02-12T08:57:49.079Z,11.82
2023-02-12T09:00:21.456Z,11.25
2023-02-12T09:02:51.364Z,10.88
2023-02-12T09:05:20.693Z,10.98
2023-02-12T09:07:49.795Z,12.15
2023-02-12T09:10:19.401Z,10.00
2023-02-12T09:12:49.090Z,10.77
2023-02-12T09:15:19.646Z,11.57
2023-02-12T09:17:48.740Z,10.90
2023-02-12T09:20:18.242Z,8.77
2023-02-12T09:22:47.370Z,7.85
2023-02-12T09:25:16.611Z,7.05
2023-02-12T09:27:45.733Z,6.15
2023-02-12T09:30:16.118Z,6.10
2023-02-12T09:32:46.607Z,6.20
2023-02-12T09:35:15.852Z,6.85
2023-02-12T09:37:45.615Z,7.60
2023-02-12T09:40:24.353Z,8.98
2023-02-12T09:43:18.775Z,7.20
2023-02-12T09:45:57.374Z,6.82
2023-02-12T09:49:04.520Z,6.40
2023-02-12T09:51:33.817Z,5.80
2023-02-12T09:54:07.856Z,3.13
2023-02-12T09:56:39.661Z,4.10
2023-02-12T09:59:10.646Z,4.18
2023-02-12T10:01:40.298Z,3.78
2023-02-12T10:04:11.222Z,3.38
2023-02-12T10:06:48.615Z,3.92
2023-02-12T10:09:40.719Z,2.90
2023-02-12T10:12:22.462Z,2.97
2023-02-12T10:15:16.303Z,3.03
2023-02-12T10:17:54.924Z,2.47
2023-02-12T10:20:59.542Z,2.75
2023-02-12T10:23:52.219Z,2.20
2023-02-12T10:26:27.250Z,2.28
2023-02-12T10:29:01.426Z,2.15
2023-02-12T10:31:33.796Z,2.28
2023-02-12T10:34:16.166Z,1.77
2023-02-12T10:36:50.097Z,2.22
2023-02-12T10:39:25.451Z,2.20
2023-02-12T10:42:02.605Z,2.20
2023-02-12T10:44:32.605Z,1.75
2023-02-12T10:47:02.439Z,1.70
2023-02-12T10:49:33.676Z,1.70
2023-02-12T10:52:14.397Z,1.80
2023-02-12T10:54:45.385Z,2.10
2023-02-12T10:57:20.756Z,2.25
2023-02-12T10:59:53.228Z,2.00
2023-02-12T11:02:29.271Z,1.83
2023-02-12T11:05:01.082Z,1.65
2023-02-12T11:07:50.380Z,2.10
2023-02-12T11:10:27.775Z,1.60
2023-02-12T11:15:32.159Z,1.83
2023-02-12T11:18:05.537Z,1.88
2023-02-12T11:20:39.746Z,1.80
2023-02-12T11:23:28.572Z,1.30
2023-02-12T11:26:01.531Z,1.63
2023-02-12T11:28:31.894Z,1.90
2023-02-12T11:31:22.400Z,1.70
2023-02-12T11:34:10.622Z,1.48
2023-02-12T11:36:44.844Z,2.30
2023-02-12T11:39:24.809Z,1.98
2023-02-12T11:41:56.581Z,2.20
2023-02-12T11:44:29.834Z,2.78
2023-02-12T11:47:03.956Z,3.08
2023-02-12T11:49:35.964Z,2.00
2023-02-12T11:52:06.554Z,1.88
2023-02-12T11:54:43.296Z,1.85
2023-02-12T11:57:44.977Z,1.50
2023-02-12T12:00:18.460Z,1.70
2023-02-12T12:03:02.818Z,1.83
2023-02-12T12:05:38.230Z,1.60
2023-02-12T12:08:19.052Z,2.08
2023-02-12T12:10:55.267Z,2.13
2023-02-12T12:13:34.795Z,2.03
2023-02-12T12:16:30.572Z,1.90
2023-02-12T12:19:24.360Z,2.28
2023-02-12T12:22:04.085Z,2.00
2023-02-12T12:24:44.828Z,1.60
2023-02-12T12:27:46.207Z,2.00
2023-02-12T12:30:26.142Z,1.60
2023-02-12T12:33:00.784Z,1.40
2023-02-12T12:35:42.235Z,1.95
2023-02-12T12:38:24.949Z,1.35
2023-02-12T12:41:05.811Z,1.85
2023-02-12T12:43:51.128Z,1.77
2023-02-12T12:46:56.052Z,1.48
2023-02-12T12:49:52.491Z,1.50
2023-02-12T12:52:54.156Z,2.20
2023-02-12T12:55:50.124Z,1.98
2023-02-12T12:58:34.271Z,2.05
2023-02-12T13:01:26.664Z,2.65
2023-02-12T13:04:28.031Z,1.55
2023-02-12T13:07:13.717Z,1.67
2023-02-12T13:09:59.785Z,1.75
2023-02-12T13:12:56.096Z,1.70
2023-02-12T13:15:35.784Z,1.63
2023-02-12T13:18:16.691Z,2.15
2023-02-12T13:20:57.567Z,2.20
2023-02-12T13:23:40.934Z,2.03
2023-02-12T13:26:20.051Z,2.60
2023-02-12T13:28:54.644Z,2.00
2023-02-12T13:31:35.453Z,2.20
2023-02-12T13:34:09.184Z,1.80
2023-02-12T13:36:42.993Z,1.77
2023-02-12T13:39:23.819Z,2.20
2023-02-12T13:42:05.199Z,2.10
2023-02-12T13:44:42.255Z,1.30
2023-02-12T13:47:23.653Z,1.40
2023-02-12T13:50:00.873Z,1.55
2023-02-12T13:52:40.998Z,1.40
2023-02-12T13:55:26.959Z,1.23
2023-02-12T13:58:48.169Z,1.60
2023-02-12T14:01:52.642Z,1.50
2023-02-12T14:04:34.198Z,2.33
2023-02-12T14:07:07.785Z,2.30
2023-02-12T14:09:42.236Z,1.90
2023-02-12T14:12:17.771Z,2.17
2023-02-12T14:15:55.409Z,10.35
2023-02-12T14:18:32.333Z,3.70
2023-02-12T14:21:38.050Z,2.80
2023-02-12T14:24:54.647Z,2.13
2023-02-12T14:27:35.346Z,2.20
2023-02-12T14:30:27.141Z,2.28
2023-02-12T14:33:21.720Z,1.63
2023-02-12T14:36:17.207Z,1.50
2023-02-12T14:39:04.471Z,1.45
2023-02-12T14:41:41.774Z,2.17
2023-02-12T14:44:49.446Z,1.73
2023-02-12T14:47:53.189Z,1.80
2023-02-12T14:50:38.561Z,1.90
2023-02-12T14:53:32.005Z,1.52
2023-02-12T14:56:02.360Z,1.70
2023-02-12T14:58:33.806Z,1.63
2023-02-12T15:01:04.343Z,1.52
2023-02-12T15:03:43.292Z,1.35
2023-02-12T15:06:18.349Z,1.90
2023-02-12T15:08:55.181Z,8.20
2023-02-12T15:11:39.795Z,2.60
2023-02-12T15:14:17.958Z,1.65
2023-02-12T15:16:55.950Z,1.80
2023-02-12T15:19:43.043Z,2.60
2023-02-12T15:22:22.283Z,4.70
2023-02-12T15:24:52.508Z,2.85
2023-02-12T15:27:22.596Z,2.42
2023-02-12T15:29:54.658Z,2.85
2023-02-12T15:32:26.859Z,2.33
2023-02-12T15:34:57.279Z,2.78
2023-02-12T15:37:30.659Z,2.20
2023-02-12T15:40:03.749Z,2.13
2023-02-12T15:42:35.459Z,3.60
2023-02-12T15:45:23.161Z,2.63
2023-02-12T15:48:12.426Z,3.10
2023-02-12T15:50:56.339Z,3.47
2023-02-12T15:53:27.448Z,4.57
2023-02-12T15:55:56.803Z,4.07
2023-02-12T15:58:28.826Z,4.15
2023-02-12T16:01:03.967Z,2.20
2023-02-12T16:03:35.513Z,3.53
2023-02-12T16:06:11.479Z,2.83
2023-02-12T16:08:42.164Z,2.65
2023-02-12T16:11:16.493Z,2.35
2023-02-12T16:13:49.460Z,2.40
2023-02-12T16:16:30.113Z,2.60
2023-02-12T16:19:19.649Z,2.45
2023-02-12T16:21:53.023Z,2.95
2023-02-12T16:24:31.479Z,3.17
2023-02-12T16:27:08.256Z,2.95
2023-02-12T16:29:45.832Z,2.67
2023-02-12T16:32:34.255Z,3.58
2023-02-12T16:35:23.313Z,3.15
2023-02-12T16:38:05.175Z,4.90
2023-02-12T16:40:37.878Z,6.97
2023-02-12T16:43:27.227Z,9.55
2023-02-12T16:46:07.043Z,11.20
2023-02-12T16:48:43.838Z,10.18
2023-02-12T16:51:24.819Z,9.75
2023-02-12T16:53:57.580Z,10.15
2023-02-12T16:56:30.638Z,7.95
2023-02-12T16:59:02.045Z,14.57
2023-02-12T17:01:35.110Z,17.55
2023-02-12T17:04:08.611Z,10.35
2023-02-12T17:06:37.656Z,8.00
2023-02-12T17:09:09.750Z,7.28
2023-02-12T17:11:42.249Z,8.15
2023-02-12T17:14:15.564Z,10.82
2023-02-12T17:16:44.711Z,14.30
2023-02-12T17:19:15.579Z,16.17
2023-02-12T17:21:49.475Z,7.82
2023-02-12T17:24:23.006Z,10.00
2023-02-12T17:26:52.890Z,7.15
2023-02-12T17:29:25.868Z,6.72
2023-02-12T17:31:56.190Z,4.18
2023-02-12T17:34:28.739Z,5.57
2023-02-12T17:36:59.449Z,6.25
2023-02-12T17:39:28.715Z,6.30
2023-02-12T17:42:00.120Z,7.35
2023-02-12T17:44:29.347Z,7.82
2023-02-12T17:46:59.055Z,8.27
2023-02-12T17:49:29.528Z,12.27
2023-02-12T17:51:59.088Z,11.95
2023-02-12T17:54:28.256Z,14.45
2023-02-12T17:56:57.292Z,9.63
2023-02-12T17:59:26.505Z,5.20
2023-02-12T18:01:56.074Z,7.68
2023-02-12T18:04:25.506Z,10.43
2023-02-12T18:06:57.987Z,29.52
2023-02-12T18:09:27.139Z,29.65
2023-02-12T18:11:56.274Z,30.60
2023-02-12T18:14:25.509Z,30.73
2023-02-12T18:16:54.762Z,15.43
2023-02-12T18:19:24.036Z,11.93
2023-02-12T18:21:55.074Z,8.68
2023-02-12T18:24:24.156Z,8.07
2023-02-12T18:26:53.490Z,8.23
2023-02-12T18:29:22.612Z,9.15
2023-02-12T18:31:51.701Z,8.05
2023-02-12T18:34:21.103Z,8.05
2023-02-12T18:36:50.244Z,5.93
2023-02-12T18:39:21.202Z,7.30
2023-02-12T18:41:50.665Z,5.93
2023-02-12T18:44:19.856Z,5.53
2023-02-12T18:46:49.007Z,6.07
2023-02-12T18:49:18.148Z,4.07
2023-02-12T18:51:47.497Z,5.32
2023-02-12T18:54:16.633Z,7.80
2023-02-12T18:56:50.665Z,5.85
2023-02-12T18:59:21.845Z,5.75
2023-02-12T19:01:52.458Z,4.63
2023-02-12T19:04:25.389Z,3.92
2023-02-12T19:06:56.060Z,7.05
2023-02-12T19:09:27.982Z,6.35
2023-02-12T19:12:00.996Z,6.05
2023-02-12T19:14:37.186Z,6.43
2023-02-12T19:17:06.655Z,4.70
2023-02-12T19:19:35.891Z,4.80
2023-02-12T19:22:05.398Z,7.20
2023-02-12T19:24:45.870Z,6.53
2023-02-12T19:27:17.997Z,7.28
2023-02-12T19:29:47.231Z,6.25
2023-02-12T19:32:16.418Z,6.88
2023-02-12T19:34:46.969Z,7.75
2023-02-12T19:37:18.373Z,6.72
2023-02-12T19:39:47.861Z,6.45
2023-02-12T19:42:24.584Z,6.35
2023-02-12T19:44:53.955Z,7.20
2023-02-12T19:47:23.367Z,13.90
2023-02-12T19:49:52.426Z,7.18
2023-02-12T19:52:21.536Z,8.10
2023-02-12T19:54:50.648Z,8.95
2023-02-12T19:57:21.072Z,8.43
2023-02-12T19:59:50.819Z,6.38
2023-02-12T20:02:19.966Z,6.80
2023-02-12T20:04:49.118Z,6.40
2023-02-12T20:07:18.597Z,8.15
2023-02-12T20:09:51.070Z,10.20
2023-02-12T20:12:21.730Z,9.25
2023-02-12T20:14:51.026Z,8.18
2023-02-12T20:17:20.293Z,9.57
2023-02-12T20:19:50.122Z,9.98
2023-02-12T20:22:20.596Z,8.30
2023-02-12T20:24:50.213Z,7.32
2023-02-12T20:27:19.221Z,7.18
2023-02-12T20:29:49.745Z,6.53
2023-02-12T20:32:18.863Z,7.72
2023-02-12T20:34:51.562Z,7.95
2023-02-12T20:37:20.765Z,8.15
2023-02-12T20:39:49.760Z,8.38
2023-02-12T20:42:18.773Z,8.55
2023-02-12T20:44:49.185Z,8.02
2023-02-12T20:47:18.279Z,9.48
2023-02-12T20:49:48.741Z,10.23
2023-02-12T20:52:18.105Z,10.82
2023-02-12T20:54:48.052Z,11.70
2023-02-12T20:57:17.631Z,12.27
2023-02-12T20:59:46.809Z,11.50
2023-02-12T21:02:18.513Z,11.40
2023-02-12T21:04:47.574Z,11.82
2023-02-12T21:07:16.753Z,9.73
2023-02-12T21:09:45.808Z,7.40
2023-02-12T21:12:16.645Z,6.22
2023-02-12T21:14:45.744Z,5.63
2023-02-12T21:17:16.484Z,5.93
2023-02-12T21:19:45.440Z,6.43
2023-02-12T21:22:14.473Z,8.65
2023-02-12T21:24:43.460Z,8.93
2023-02-12T21:27:12.469Z,9.73
2023-02-12T21:29:41.563Z,10.00
2023-02-12T21:32:10.789Z,10.25
2023-02-12T21:34:41.753Z,10.55
2023-02-12T21:37:10.678Z,10.02
2023-02-12T21:39:39.591Z,8.95
2023-02-12T21:42:08.583Z,11.68
2023-02-12T21:44:37.571Z,10.63
2023-02-12T21:47:07.420Z,10.30
2023-02-12T21:49:36.369Z,10.73
2023-02-12T21:52:07.436Z,11.00
2023-02-12T21:54:38.002Z,9.90
2023-02-12T21:57:07.058Z,11.27
2023-02-12T21:59:36.012Z,11.30
2023-02-12T22:02:06.066Z,11.57
2023-02-12T22:04:35.059Z,11.13
2023-02-12T22:07:04.114Z,10.88
2023-02-12T22:09:34.424Z,10.43
2023-02-12T22:12:04.040Z,9.88
2023-02-12T22:14:33.069Z,8.95
2023-02-12T22:17:02.059Z,10.10
2023-02-12T22:19:31.004Z,9.05
2023-02-12T22:21:59.982Z,10.63
2023-02-12T22:24:29.000Z,12.35
2023-02-12T22:26:59.327Z,10.88
2023-02-12T22:29:28.355Z,11.00
2023-02-12T22:31:57.455Z,9.93
2023-02-12T22:34:26.407Z,8.48
2023-02-12T22:36:55.362Z,9.35
2023-02-12T22:39:24.416Z,8.75
2023-02-12T22:41:53.374Z,10.18
2023-02-12T22:44:23.749Z,9.18
2023-02-12T22:46:52.718Z,8.63
2023-02-12T22:49:21.708Z,8.85
2023-02-12T22:51:50.699Z,9.65
2023-02-12T22:54:20.989Z,9.10
2023-02-12T22:56:52.353Z,10.20
2023-02-12T22:59:21.303Z,10.20
2023-02-12T23:01:51.669Z,10.10
2023-02-12T23:04:20.786Z,9.90
2023-02-12T23:06:49.819Z,9.85
2023-02-12T23:09:19.869Z,8.98
2023-02-12T23:11:49.586Z,9.60
2023-02-12T23:14:19.115Z,9.30
2023-02-12T23:16:48.353Z,9.55
2023-02-12T23:19:18.984Z,10.07
2023-02-12T23:21:48.001Z,9.93
2023-02-12T23:24:16.933Z,9.77
2023-02-12T23:26:46.104Z,9.88
2023-02-12T23:29:15.372Z,9.65
2023-02-12T23:31:44.423Z,10.15
2023-02-12T23:34:13.520Z,10.38
2023-02-12T23:36:43.822Z,9.85
2023-02-12T23:39:13.928Z,10.45
2023-02-12T23:41:42.910Z,11.05
2023-02-12T23:44:13.014Z,11.77
2023-02-12T23:46:42.267Z,12.13
2023-02-12T23:49:11.309Z,10.25
2023-02-12T23:51:40.285Z,10.45
2023-02-12T23:54:10.713Z,10.77
2023-02-12T23:56:39.845Z,10.05
2023-02-12T23:59:09.035Z,10.38
